createdAt,value
2022-12-23T00:01:52.842Z,55.03
2022-12-23T00:04:24.490Z,47.07
2022-12-23T00:06:56.310Z,48.93
2022-12-23T00:09:23.089Z,49.70
2022-12-23T00:12:13.155Z,46.43
2022-12-23T00:14:58.603Z,46.77
2022-12-23T00:17:27.753Z,47.23
2022-12-23T00:19:57.232Z,49.43
2022-12-23T00:22:42.856Z,45.23
2022-12-23T00:25:09.904Z,47.13
2022-12-23T00:27:38.951Z,43.60
2022-12-23T00:30:06.878Z,48.60
2022-12-23T00:32:36.357Z,43.87
2022-12-23T00:35:03.230Z,50.57
2022-12-23T00:37:33.080Z,44.47
2022-12-23T00:40:32.021Z,49.27
2022-12-23T00:42:59.660Z,47.83
2022-12-23T00:45:26.542Z,56.00
2022-12-23T00:48:11.615Z,57.70
2022-12-23T00:50:39.252Z,52.37
2022-12-23T00:53:06.857Z,58.07
2022-12-23T00:55:36.090Z,61.83
2022-12-23T00:58:02.882Z,56.93
2022-12-23T01:00:48.108Z,63.93
2022-12-23T01:03:33.696Z,56.43
2022-12-23T01:06:01.112Z,63.93
2022-12-23T01:08:28.001Z,60.30
2022-12-23T01:10:54.826Z,64.60
2022-12-23T01:13:21.767Z,64.40
2022-12-23T01:15:48.615Z,70.13
2022-12-23T01:18:18.266Z,65.37
2022-12-23T01:20:47.614Z,75.90
2022-12-23T01:23:17.250Z,70.03
2022-12-23T01:25:44.286Z,66.87
2022-12-23T01:28:13.624Z,68.80
2022-12-23T01:30:40.384Z,75.60
2022-12-23T01:33:07.235Z,71.97
2022-12-23T01:35:34.034Z,71.63
2022-12-23T01:38:00.805Z,77.17
2022-12-23T01:40:27.622Z,71.23
2022-12-23T01:42:54.449Z,87.27
2022-12-23T01:45:28.505Z,79.50
2022-12-23T01:47:59.428Z,78.13
2022-12-23T01:50:28.608Z,72.70
2022-12-23T01:53:13.962Z,77.60
2022-12-23T01:56:11.559Z,80.53
2022-12-23T01:58:41.334Z,76.63
2022-12-23T02:01:26.642Z,80.87
2022-12-23T02:03:56.191Z,75.57
2022-12-23T02:07:01.297Z,73.93
2022-12-23T02:09:35.764Z,74.90
2022-12-23T02:12:14.603Z,78.67
2022-12-23T02:15:31.445Z,79.60
2022-12-23T02:18:04.309Z,78.63
2022-12-23T02:21:01.960Z,87.27
2022-12-23T02:24:12.442Z,85.10
2022-12-23T02:27:10.044Z,76.07
2022-12-23T02:29:46.632Z,77.13
2022-12-23T02:32:18.430Z,84.00
2022-12-23T02:34:51.410Z,75.87
2022-12-23T02:37:25.587Z,75.43
2022-12-23T02:40:04.671Z,70.80
2022-12-23T02:42:39.864Z,82.37
2022-12-23T02:45:09.679Z,79.87
2022-12-23T02:47:51.174Z,73.43
2022-12-23T02:50:20.628Z,73.43
2022-12-23T02:52:49.957Z,69.57
2022-12-23T02:55:22.594Z,67.97
2022-12-23T02:57:49.773Z,67.87
2022-12-23T03:00:17.481Z,64.70
2022-12-23T03:02:46.545Z,64.63
2022-12-23T03:05:35.389Z,59.80
2022-12-23T03:08:06.005Z,65.50
2022-12-23T03:10:51.560Z,61.23
2022-12-23T03:13:27.348Z,74.87
2022-12-23T03:16:40.847Z,60.43
2022-12-23T03:19:19.461Z,71.87
2022-12-23T03:22:23.817Z,71.17
2022-12-23T03:25:05.828Z,68.57
2022-12-23T03:28:05.161Z,69.90
2022-12-23T03:30:32.009Z,65.43
2022-12-23T03:33:03.014Z,76.03
2022-12-23T03:35:36.637Z,74.10
2022-12-23T03:38:05.510Z,77.20
2022-12-23T03:40:57.773Z,66.67
2022-12-23T03:43:33.627Z,75.37
2022-12-23T03:46:03.282Z,72.27
2022-12-23T03:48:39.969Z,77.17
2022-12-23T03:51:12.981Z,77.93
2022-12-23T03:53:46.607Z,67.63
2022-12-23T03:56:20.981Z,70.20
2022-12-23T03:58:59.549Z,61.53
2022-12-23T04:01:29.538Z,67.70
2022-12-23T04:04:48.793Z,64.87
2022-12-23T04:07:27.569Z,58.43
2022-12-23T04:09:54.405Z,55.83
2022-12-23T04:12:22.842Z,56.90
2022-12-23T04:14:49.741Z,56.77
2022-12-23T04:17:19.376Z,53.57
2022-12-23T04:19:46.267Z,57.70
2022-12-23T04:22:16.313Z,54.53
2022-12-23T04:24:43.276Z,51.57
2022-12-23T04:27:12.416Z,55.20
2022-12-23T04:29:39.255Z,56.17
2022-12-23T04:32:06.309Z,53.47
2022-12-23T04:34:35.193Z,57.20
2022-12-23T04:37:04.456Z,53.33
2022-12-23T04:39:33.350Z,58.97
2022-12-23T04:42:00.154Z,62.10
2022-12-23T04:44:26.904Z,61.27
2022-12-23T04:46:53.771Z,69.03
2022-12-23T04:49:22.809Z,64.43
2022-12-23T04:51:49.574Z,58.87
2022-12-23T04:54:18.669Z,61.53
2022-12-23T04:56:45.870Z,63.87
2022-12-23T04:59:12.717Z,54.97
2022-12-23T05:01:39.711Z,60.77
2022-12-23T05:04:11.752Z,56.83
2022-12-23T05:06:39.000Z,57.77
2022-12-23T05:09:05.979Z,59.53
2022-12-23T05:11:37.115Z,54.50
2022-12-23T05:14:07.091Z,49.93
2022-12-23T05:16:34.383Z,53.00
2022-12-23T05:19:01.222Z,54.97
2022-12-23T05:21:28.032Z,45.10
2022-12-23T05:23:57.403Z,44.20
2022-12-23T05:26:24.230Z,46.03
2022-12-23T05:28:53.325Z,46.73
2022-12-23T05:31:20.186Z,41.33
2022-12-23T05:33:47.086Z,45.10
2022-12-23T05:36:14.324Z,46.87
2022-12-23T05:38:41.090Z,45.97
2022-12-23T05:41:07.979Z,46.63
2022-12-23T05:43:35.202Z,50.40
2022-12-23T05:46:02.027Z,47.90
2022-12-23T05:48:28.936Z,52.43
2022-12-23T05:50:55.725Z,50.30
2022-12-23T05:53:23.990Z,46.00
2022-12-23T05:55:50.816Z,47.73
2022-12-23T05:58:17.720Z,43.30
2022-12-23T06:00:44.529Z,45.93
2022-12-23T06:03:12.056Z,41.50
2022-12-23T06:05:39.841Z,46.97
2022-12-23T06:08:06.722Z,45.10
2022-12-23T06:10:33.530Z,45.70
2022-12-23T06:13:00.326Z,44.70
2022-12-23T06:15:27.163Z,44.43
2022-12-23T06:17:53.935Z,40.67
2022-12-23T06:20:25.782Z,43.43
2022-12-23T06:22:52.647Z,42.23
2022-12-23T06:25:19.470Z,45.60
2022-12-23T06:27:46.410Z,45.33
2022-12-23T06:30:15.721Z,41.37
2022-12-23T06:32:42.476Z,48.83
2022-12-23T06:35:09.609Z,47.10
2022-12-23T06:37:36.492Z,44.57
2022-12-23T06:40:03.841Z,47.67
2022-12-23T06:42:30.677Z,47.70
2022-12-23T06:44:59.981Z,49.13
2022-12-23T06:47:26.764Z,50.53
2022-12-23T06:49:58.332Z,48.63
2022-12-23T06:52:29.822Z,53.13
2022-12-23T06:54:56.676Z,53.53
2022-12-23T06:57:23.484Z,49.57
2022-12-23T06:59:50.323Z,47.63
2022-12-23T07:02:17.332Z,44.17
2022-12-23T07:04:46.834Z,44.13
2022-12-23T07:07:15.877Z,47.27
2022-12-23T07:09:44.895Z,47.00
2022-12-23T07:12:11.700Z,42.27
2022-12-23T07:14:38.491Z,45.17
2022-12-23T07:17:05.280Z,41.60
2022-12-23T07:19:32.085Z,43.03
2022-12-23T07:21:59.285Z,43.13
2022-12-23T07:24:26.109Z,41.97
2022-12-23T07:26:52.935Z,44.17
2022-12-23T07:29:19.697Z,39.17
2022-12-23T07:31:49.192Z,46.87
2022-12-23T07:34:16.110Z,37.60
2022-12-23T07:36:42.868Z,40.67
2022-12-23T07:39:11.896Z,39.67
2022-12-23T07:41:40.839Z,41.03
2022-12-23T07:44:11.964Z,39.40
2022-12-23T07:46:46.437Z,34.13
2022-12-23T07:49:13.773Z,44.10
2022-12-23T07:51:40.533Z,38.47
2022-12-23T07:54:09.593Z,39.80
2022-12-23T07:56:36.364Z,35.47
2022-12-23T07:59:03.180Z,37.33
2022-12-23T08:01:30.479Z,38.47
2022-12-23T08:03:57.370Z,50.27
2022-12-23T08:06:29.039Z,36.23
2022-12-23T08:08:56.200Z,37.27
2022-12-23T08:11:25.455Z,36.13
2022-12-23T08:13:52.899Z,42.20
2022-12-23T08:16:21.886Z,39.27
2022-12-23T08:18:48.907Z,40.23
2022-12-23T08:21:18.044Z,38.37
2022-12-23T08:23:45.290Z,42.23
2022-12-23T08:26:21.019Z,42.80
2022-12-23T08:28:48.080Z,41.93
2022-12-23T08:31:18.925Z,46.60
2022-12-23T08:33:50.260Z,41.47
2022-12-23T08:36:22.757Z,42.17
2022-12-23T08:38:55.476Z,39.83
2022-12-23T08:41:24.340Z,45.23
2022-12-23T08:43:51.453Z,44.47
2022-12-23T08:46:18.671Z,44.60
2022-12-23T08:48:49.504Z,45.53
2022-12-23T08:51:17.333Z,43.17
2022-12-23T08:53:46.665Z,43.73
2022-12-23T08:56:19.763Z,44.23
2022-12-23T08:58:53.017Z,40.57
2022-12-23T09:01:22.650Z,38.60
2022-12-23T09:03:51.826Z,45.93
2022-12-23T09:06:26.527Z,43.87
2022-12-23T09:08:55.723Z,44.13
2022-12-23T09:11:24.038Z,45.07
2022-12-23T09:13:50.834Z,41.30
2022-12-23T09:16:17.810Z,40.73
2022-12-23T09:18:46.779Z,37.77
2022-12-23T09:21:15.083Z,45.77
2022-12-23T09:23:43.994Z,43.10
2022-12-23T09:26:18.436Z,44.70
2022-12-23T09:28:45.197Z,41.17
2022-12-23T09:31:14.823Z,44.40
2022-12-23T09:33:43.899Z,50.23
2022-12-23T09:36:10.697Z,61.70
2022-12-23T09:38:38.030Z,48.50
2022-12-23T09:41:25.700Z,44.93
2022-12-23T09:43:58.399Z,42.87
2022-12-23T09:46:27.253Z,44.83
2022-12-23T09:49:13.169Z,45.90
2022-12-23T09:51:40.239Z,40.97
2022-12-23T09:54:34.149Z,42.43
2022-12-23T09:57:23.267Z,41.47
2022-12-23T10:00:03.833Z,41.97
2022-12-23T10:02:30.783Z,40.47
2022-12-23T10:05:31.650Z,45.53
2022-12-23T10:07:59.318Z,38.60
2022-12-23T10:10:49.980Z,39.80
2022-12-23T10:13:27.941Z,41.30
2022-12-23T10:15:55.091Z,39.93
2022-12-23T10:18:40.747Z,40.83
2022-12-23T10:21:42.213Z,39.73
2022-12-23T10:24:21.061Z,40.47
2022-12-23T10:27:01.459Z,37.30
2022-12-23T10:29:31.828Z,40.00
2022-12-23T10:32:17.181Z,44.13
2022-12-23T10:34:44.217Z,39.13
2022-12-23T10:37:19.658Z,38.53
2022-12-23T10:40:15.145Z,40.60
2022-12-23T10:43:27.278Z,41.10
2022-12-23T10:45:54.037Z,38.17
2022-12-23T10:48:38.007Z,36.80
2022-12-23T10:51:18.317Z,39.70
2022-12-23T10:53:59.372Z,44.40
2022-12-23T10:56:28.874Z,44.37
2022-12-23T10:58:56.928Z,43.50
2022-12-23T11:01:27.005Z,42.30
2022-12-23T11:04:13.422Z,41.90
2022-12-23T11:06:42.984Z,45.93
2022-12-23T11:09:18.208Z,40.97
2022-12-23T11:12:00.939Z,42.30
2022-12-23T11:14:41.704Z,44.97
2022-12-23T11:17:27.777Z,46.77
2022-12-23T11:20:12.803Z,45.00
2022-12-23T11:22:49.864Z,44.23
2022-12-23T11:25:34.477Z,42.93
2022-12-23T11:28:10.287Z,42.33
2022-12-23T11:30:39.279Z,43.13
2022-12-23T11:33:14.800Z,48.83
2022-12-23T11:35:41.681Z,44.03
2022-12-23T11:38:11.083Z,45.77
2022-12-23T11:40:38.185Z,46.20
2022-12-23T11:43:13.656Z,48.00
2022-12-23T11:45:40.563Z,46.77
2022-12-23T11:48:31.974Z,44.30
2022-12-23T11:51:02.708Z,46.30
2022-12-23T11:53:30.013Z,47.37
2022-12-23T11:56:06.801Z,51.17
2022-12-23T11:58:45.031Z,47.20
2022-12-23T12:01:23.172Z,46.17
2022-12-23T12:04:00.724Z,43.70
2022-12-23T12:06:27.764Z,48.77
2022-12-23T12:08:55.922Z,50.23
2022-12-23T12:11:27.200Z,40.03
2022-12-23T12:14:04.066Z,45.43
2022-12-23T12:16:30.959Z,46.43
2022-12-23T12:19:00.780Z,46.07
2022-12-23T12:21:29.476Z,48.53
2022-12-23T12:24:17.860Z,75.20
2022-12-23T12:26:51.025Z,45.27
2022-12-23T12:29:23.924Z,44.13
2022-12-23T12:31:55.639Z,42.70
2022-12-23T12:34:27.612Z,40.37
2022-12-23T12:37:10.732Z,46.53
2022-12-23T12:39:43.471Z,45.60
2022-12-23T12:42:19.706Z,45.53
2022-12-23T12:45:02.456Z,44.83
2022-12-23T12:47:58.187Z,49.00
2022-12-23T12:50:34.048Z,45.43
2022-12-23T12:53:11.613Z,47.17
2022-12-23T12:55:42.312Z,50.87
2022-12-23T12:58:17.915Z,47.63
2022-12-23T13:01:05.049Z,43.70
2022-12-23T13:03:52.631Z,45.43
2022-12-23T13:06:56.929Z,43.83
2022-12-23T13:09:35.008Z,44.93
2022-12-23T13:12:04.525Z,44.70
2022-12-23T13:14:53.303Z,51.23
2022-12-23T13:17:40.562Z,42.33
2022-12-23T13:20:16.451Z,46.03
2022-12-23T13:22:43.480Z,43.57
2022-12-23T13:25:16.374Z,49.13
2022-12-23T13:28:07.268Z,46.27
2022-12-23T13:30:38.325Z,47.53
2022-12-23T13:33:23.189Z,47.70
2022-12-23T13:36:10.495Z,50.97
2022-12-23T13:38:40.007Z,48.77
2022-12-23T13:41:15.880Z,48.63
2022-12-23T13:43:53.849Z,48.40
2022-12-23T13:46:23.155Z,51.50
2022-12-23T13:48:56.077Z,46.53
2022-12-23T13:51:30.878Z,51.10
2022-12-23T13:54:20.315Z,50.50
2022-12-23T13:57:08.117Z,52.37
2022-12-23T13:59:47.243Z,47.57
2022-12-23T14:02:36.554Z,53.33
2022-12-23T14:05:16.391Z,47.90
2022-12-23T14:07:43.680Z,52.83
2022-12-23T14:10:12.152Z,46.33
2022-12-23T14:12:39.858Z,54.90
2022-12-23T14:15:31.815Z,53.33
2022-12-23T14:18:23.152Z,54.20
2022-12-23T14:20:53.440Z,53.63
2022-12-23T14:23:33.359Z,56.20
2022-12-23T14:26:41.199Z,52.20
2022-12-23T14:29:38.772Z,57.97
2022-12-23T14:32:17.962Z,51.07
2022-12-23T14:35:15.558Z,51.97
2022-12-23T14:37:42.511Z,50.23
2022-12-23T14:40:40.361Z,53.63
2022-12-23T14:43:22.775Z,54.97
2022-12-23T14:45:54.043Z,51.50
2022-12-23T14:48:44.435Z,60.53
2022-12-23T14:51:16.708Z,50.70
2022-12-23T14:53:53.709Z,59.83
2022-12-23T14:56:27.821Z,56.90
2022-12-23T14:59:09.304Z,53.13
2022-12-23T15:01:51.085Z,53.27
2022-12-23T15:04:23.463Z,55.13
2022-12-23T15:07:03.153Z,56.53
2022-12-23T15:09:31.810Z,51.90
2022-12-23T15:12:04.764Z,49.83
2022-12-23T15:14:32.986Z,47.93
2022-12-23T15:16:59.973Z,49.27
2022-12-23T15:19:31.494Z,52.70
2022-12-23T15:22:20.712Z,53.80
2022-12-23T15:24:50.789Z,50.30
2022-12-23T15:27:29.619Z,49.47
2022-12-23T15:30:02.047Z,48.70
2022-12-23T15:32:28.952Z,54.10
2022-12-23T15:35:05.172Z,58.30
2022-12-23T15:37:32.711Z,55.07
2022-12-23T15:40:06.516Z,52.17
2022-12-23T15:42:43.332Z,54.77
2022-12-23T15:45:37.472Z,54.90
2022-12-23T15:48:05.375Z,55.93
2022-12-23T15:50:40.411Z,58.77
2022-12-23T15:53:15.853Z,57.70
2022-12-23T15:55:42.676Z,54.73
2022-12-23T15:58:18.856Z,50.03
2022-12-23T16:00:51.715Z,53.07
2022-12-23T16:03:34.729Z,53.80
2022-12-23T16:06:17.043Z,52.57
2022-12-23T16:08:55.153Z,53.30
2022-12-23T16:11:24.360Z,60.47
2022-12-23T16:13:58.311Z,55.20
2022-12-23T16:16:31.547Z,56.20
2022-12-23T16:19:01.316Z,56.13
2022-12-23T16:21:37.804Z,54.47
2022-12-23T16:24:07.856Z,57.33
2022-12-23T16:26:43.291Z,58.33
2022-12-23T16:29:10.091Z,55.27
2022-12-23T16:31:48.295Z,55.63
2022-12-23T16:34:21.133Z,57.90
2022-12-23T16:36:47.961Z,57.87
2022-12-23T16:39:24.232Z,52.83
2022-12-23T16:41:53.560Z,56.23
2022-12-23T16:44:20.392Z,56.10
2022-12-23T16:46:52.812Z,51.67
2022-12-23T16:49:21.059Z,54.03
2022-12-23T16:51:50.359Z,61.23
2022-12-23T16:54:22.412Z,60.53
2022-12-23T16:56:50.089Z,61.07
2022-12-23T16:59:16.937Z,58.67
2022-12-23T17:01:47.385Z,50.87
2022-12-23T17:04:14.454Z,56.47
2022-12-23T17:06:43.507Z,59.53
2022-12-23T17:09:10.489Z,53.60
2022-12-23T17:11:48.031Z,55.50
2022-12-23T17:14:18.000Z,53.90
2022-12-23T17:16:45.363Z,55.40
2022-12-23T17:19:12.324Z,48.90
2022-12-23T17:21:41.976Z,52.83
2022-12-23T17:24:25.566Z,56.33
2022-12-23T17:26:55.214Z,54.60
2022-12-23T17:29:22.056Z,57.90
2022-12-23T17:31:49.173Z,62.77
2022-12-23T17:34:20.434Z,61.37
2022-12-23T17:36:50.995Z,55.63
2022-12-23T17:39:20.629Z,57.03
2022-12-23T17:41:47.429Z,58.10
2022-12-23T17:44:14.829Z,57.13
2022-12-23T17:46:43.918Z,59.10
2022-12-23T17:49:10.750Z,53.20
2022-12-23T17:51:40.278Z,56.27
2022-12-23T17:54:07.123Z,60.60
2022-12-23T17:56:34.038Z,59.20
2022-12-23T17:59:00.793Z,52.80
2022-12-23T18:01:29.840Z,55.23
2022-12-23T18:03:57.360Z,56.63
2022-12-23T18:06:25.000Z,49.27
2022-12-23T18:08:56.971Z,45.90
2022-12-23T18:11:27.606Z,47.70
2022-12-23T18:13:54.441Z,51.30
2022-12-23T18:16:23.731Z,53.83
2022-12-23T18:18:51.550Z,47.60
2022-12-23T18:21:21.802Z,47.57
2022-12-23T18:23:50.865Z,51.33
2022-12-23T18:26:17.722Z,49.17
2022-12-23T18:28:46.701Z,53.97
2022-12-23T18:31:18.510Z,46.47
2022-12-23T18:33:45.353Z,48.23
2022-12-23T18:36:24.413Z,46.93
2022-12-23T18:38:53.584Z,42.83
2022-12-23T18:41:21.511Z,46.30
2022-12-23T18:43:48.408Z,44.13
2022-12-23T18:46:17.651Z,41.03
2022-12-23T18:48:51.518Z,45.03
2022-12-23T18:51:21.026Z,38.80
2022-12-23T18:53:48.028Z,40.13
2022-12-23T18:56:19.304Z,41.03
2022-12-23T18:58:46.103Z,38.03
2022-12-23T19:01:13.865Z,42.97
2022-12-23T19:03:40.898Z,40.23
2022-12-23T19:06:08.244Z,37.63
2022-12-23T19:08:37.653Z,40.20
2022-12-23T19:11:18.390Z,44.50
2022-12-23T19:13:50.321Z,44.70
2022-12-23T19:16:21.197Z,42.60
2022-12-23T19:18:51.690Z,38.80
2022-12-23T19:21:21.834Z,39.87
2022-12-23T19:23:48.832Z,38.83
2022-12-23T19:26:20.595Z,39.30
2022-12-23T19:28:48.639Z,42.37
2022-12-23T19:31:15.962Z,40.17
2022-12-23T19:33:49.298Z,35.43
2022-12-23T19:36:27.035Z,37.03
2022-12-23T19:38:53.909Z,34.47
2022-12-23T19:41:20.722Z,35.70
2022-12-23T19:43:47.605Z,33.03
2022-12-23T19:46:15.093Z,32.80
2022-12-23T19:48:42.038Z,37.63
2022-12-23T19:51:10.623Z,34.57
2022-12-23T19:53:38.485Z,36.43
2022-12-23T19:56:15.465Z,36.70
2022-12-23T19:58:45.176Z,33.37
2022-12-23T20:01:16.825Z,37.93
2022-12-23T20:03:44.130Z,35.20
2022-12-23T20:06:38.314Z,35.37
2022-12-23T20:09:08.704Z,36.13
2022-12-23T20:11:39.693Z,38.53
2022-12-23T20:14:09.574Z,36.00
2022-12-23T20:16:36.685Z,36.40
2022-12-23T20:19:03.645Z,39.27
2022-12-23T20:21:33.033Z,39.13
2022-12-23T20:24:00.004Z,38.10
2022-12-23T20:26:27.730Z,34.70
2022-12-23T20:28:54.821Z,35.13
2022-12-23T20:31:29.002Z,38.83
2022-12-23T20:33:58.579Z,38.83
2022-12-23T20:36:27.220Z,40.67
2022-12-23T20:38:54.215Z,37.67
2022-12-23T20:41:22.406Z,41.57
2022-12-23T20:44:23.360Z,41.70
2022-12-23T20:46:41.381Z,38.80
2022-12-23T20:49:08.491Z,46.10
2022-12-23T20:51:35.254Z,40.80
2022-12-23T20:54:02.122Z,45.30
2022-12-23T20:56:30.399Z,41.80
2022-12-23T20:59:03.965Z,44.70
2022-12-23T21:01:40.083Z,45.17
2022-12-23T21:04:08.958Z,48.07
2022-12-23T21:06:38.466Z,48.70
2022-12-23T21:09:07.186Z,46.87
2022-12-23T21:11:37.448Z,44.20
2022-12-23T21:14:07.822Z,43.10
2022-12-23T21:16:35.860Z,48.37
2022-12-23T21:19:15.823Z,50.03
2022-12-23T21:21:45.122Z,47.87
2022-12-23T21:24:14.406Z,50.63
2022-12-23T21:26:43.857Z,53.07
2022-12-23T21:29:10.858Z,50.53
2022-12-23T21:31:39.110Z,50.83
2022-12-23T21:34:06.324Z,52.60
2022-12-23T21:36:35.258Z,51.10
2022-12-23T21:39:04.948Z,45.63
2022-12-23T21:41:35.388Z,48.27
2022-12-23T21:44:04.612Z,50.63
2022-12-23T21:46:31.512Z,47.37
2022-12-23T21:49:00.787Z,49.77
2022-12-23T21:51:39.388Z,48.60
2022-12-23T21:54:07.351Z,46.93
2022-12-23T21:56:39.554Z,50.40
2022-12-23T21:59:08.419Z,50.23
2022-12-23T22:01:38.071Z,47.10
2022-12-23T22:04:05.038Z,46.50
2022-12-23T22:06:41.415Z,47.73
2022-12-23T22:09:08.357Z,53.33
2022-12-23T22:11:38.820Z,54.30
2022-12-23T22:14:06.766Z,46.17
2022-12-23T22:16:33.694Z,46.97
2022-12-23T22:19:06.722Z,50.63
2022-12-23T22:21:33.636Z,52.93
2022-12-23T22:24:00.480Z,49.13
2022-12-23T22:26:33.107Z,52.37
2022-12-23T22:29:01.264Z,57.07
2022-12-23T22:31:37.446Z,58.73
2022-12-23T22:34:06.803Z,59.63
2022-12-23T22:36:36.426Z,58.97
2022-12-23T22:39:03.558Z,54.07
2022-12-23T22:41:33.473Z,54.27
2022-12-23T22:44:07.996Z,59.27
2022-12-23T22:46:34.789Z,57.70
2022-12-23T22:49:01.745Z,63.23
2022-12-23T22:51:31.128Z,64.03
2022-12-23T22:53:57.988Z,62.93
2022-12-23T22:56:27.459Z,63.47
2022-12-23T22:58:58.786Z,64.33
2022-12-23T23:01:29.435Z,67.43
2022-12-23T23:03:58.066Z,59.50
2022-12-23T23:06:25.903Z,64.63
2022-12-23T23:08:52.980Z,63.57
2022-12-23T23:11:19.800Z,62.87
2022-12-23T23:13:46.611Z,57.27
2022-12-23T23:16:13.550Z,61.80
2022-12-23T23:18:40.462Z,58.93
2022-12-23T23:21:13.667Z,64.07
2022-12-23T23:23:40.481Z,65.07
2022-12-23T23:26:09.150Z,66.13
2022-12-23T23:28:39.377Z,63.40
2022-12-23T23:31:40.381Z,63.47
2022-12-23T23:34:00.341Z,64.23
2022-12-23T23:36:27.231Z,65.43
2022-12-23T23:38:54.171Z,65.53
2022-12-23T23:41:25.669Z,64.40
2022-12-23T23:43:55.012Z,59.70
2022-12-23T23:46:21.929Z,66.33
2022-12-23T23:48:48.769Z,62.03
2022-12-23T23:51:15.652Z,67.47
2022-12-23T23:53:42.497Z,65.77
2022-12-23T23:56:12.043Z,68.17
2022-12-23T23:58:38.798Z,67.50
